Time;durP1;ratioP1;P1;durP2;ratioP2;P2;SDS_P1;SDS_P2;PMS_P1;PMS_P2;Temp;Humidity;BMP_temperature;BMP_pressure;BME280_temperature;BME280_humidity;BME280_pressure;Samples;Min_cycle;Max_cycle;Signal;HPM_P1;HPM_P2
2023/03/02 00:03:28;;;;;;;73.00;36.40;;;;;;;-2.42;99.98;101565.25;223725;1269;138872;-86
2023/03/02 00:08:29;;;;;;;78.40;37.40;;;;;;;-2.41;100.00;101564.59;220099;1266;140382;-85
2023/03/02 00:13:31;;;;;;;75.00;34.60;;;;;;;-2.42;100.00;101566.85;220874;1268;139967;-85
2023/03/02 00:18:31;;;;;;;72.50;35.70;;;;;;;-2.48;100.00;101556.65;220549;1266;139578;-86
2023/03/02 00:23:32;;;;;;;82.80;37.50;;;;;;;-2.57;100.00;101556.34;220954;1266;97946;-85
2023/03/02 00:28:33;;;;;;;73.80;35.70;;;;;;;-2.59;100.00;101557.69;220258;1266;140359;-86
2023/03/02 00:33:33;;;;;;;75.40;35.10;;;;;;;-2.58;100.00;101554.67;220987;1267;139457;-86
2023/03/02 00:38:34;;;;;;;77.90;34.40;;;;;;;-2.62;100.00;101553.67;220244;1269;140991;-87
2023/03/02 00:43:34;;;;;;;65.10;33.30;;;;;;;-2.64;100.00;101550.87;220923;1266;139362;-86
2023/03/02 00:48:34;;;;;;;69.40;33.70;;;;;;;-2.67;100.00;101554.67;221121;1266;139428;-83
2023/03/02 00:53:36;;;;;;;71.90;32.00;;;;;;;-2.70;100.00;101554.55;220903;1270;98552;-86
2023/03/02 00:58:36;;;;;;;69.50;31.90;;;;;;;-2.74;100.00;101547.20;220154;1266;140171;-86
2023/03/02 01:03:37;;;;;;;73.50;32.10;;;;;;;-2.77;100.00;101544.34;220873;1265;139437;-85
2023/03/02 01:08:37;;;;;;;69.20;34.90;;;;;;;-2.78;100.00;101532.90;220202;1266;140733;-83
2023/03/02 01:13:38;;;;;;;72.70;34.60;;;;;;;-2.77;100.00;101528.55;220875;1266;139212;-84
2023/03/02 01:18:38;;;;;;;78.30;36.60;;;;;;;-2.77;100.00;101528.91;220392;1267;139890;-85
2023/03/02 01:23:38;;;;;;;64.30;32.90;;;;;;;-2.78;100.00;101519.60;220998;1268;139137;-85
2023/03/02 01:28:39;;;;;;;68.90;34.80;;;;;;;-2.80;100.00;101516.68;220356;1267;139898;-85
2023/03/02 01:33:39;;;;;;;65.10;31.70;;;;;;;-2.81;100.00;101508.23;220747;1266;139045;-85
2023/03/02 01:38:39;;;;;;;62.50;31.40;;;;;;;-2.84;100.00;101508.80;220322;1269;139984;-84
2023/03/02 01:43:40;;;;;;;59.60;30.80;;;;;;;-2.85;100.00;101506.10;220845;1269;139190;-84
2023/03/02 01:48:47;;;;;;;61.00;32.10;;;;;;;-2.87;100.00;101502.97;220322;1270;140033;-85
2023/03/02 01:53:54;;;;;;;62.50;29.80;;;;;;;-2.89;100.00;101489.81;220806;1267;139227;-85
2023/03/02 01:59:00;;;;;;;;;;;;;;;-2.90;100.00;101486.84;220349;1270;139403;-85
2023/03/02 02:04:01;;;;;;;48.70;22.80;;;;;;;-2.93;100.00;101481.81;220670;1269;125217;-85
2023/03/02 02:09:04;;;;;;;47.00;22.60;;;;;;;-2.94;100.00;101477.13;220315;1266;139635;-85
2023/03/02 02:14:05;;;;;;;51.30;24.80;;;;;;;-2.90;100.00;101475.32;220870;1270;139183;-86
2023/03/02 02:19:17;;;;;;;48.60;22.00;;;;;;;-2.83;100.00;101464.58;220176;1270;139822;-86
2023/03/02 02:24:27;;;;;;;42.40;22.10;;;;;;;-2.73;100.00;101466.50;220838;1269;139285;-85
2023/03/02 02:29:46;;;;;;;46.10;21.80;;;;;;;-2.64;100.00;101464.64;220344;1270;139088;-86
2023/03/02 02:35:00;;;;;;;47.30;23.10;;;;;;;-2.52;100.00;101462.36;222239;1267;110834;-86
2023/03/02 02:40:11;;;;;;;46.30;21.60;;;;;;;-2.37;100.00;101461.27;220175;1270;140508;-86
2023/03/02 02:45:30;;;;;;;52.90;21.50;;;;;;;-2.13;100.00;101463.89;220776;1267;139247;-85
2023/03/02 02:50:33;;;;;;;45.80;21.70;;;;;;;-1.90;100.00;101462.40;220228;1267;139855;-86
2023/03/02 02:55:34;;;;;;;55.00;23.90;;;;;;;-1.72;100.00;101459.44;220763;1267;139787;-85
2023/03/02 03:00:36;;;;;;;53.10;26.70;;;;;;;-1.66;100.00;101456.29;220277;1269;139238;-87
2023/03/02 03:05:37;;;;;;;61.80;28.10;;;;;;;-1.60;100.00;101466.16;220842;1270;107408;-86
2023/03/02 03:10:39;;;;;;;66.70;30.10;;;;;;;-1.55;100.00;101468.96;220329;1267;139539;-86
2023/03/02 03:15:40;;;;;;;78.90;32.50;;;;;;;-1.42;100.00;101472.52;220732;1267;139899;-85
2023/03/02 03:20:40;;;;;;;71.00;30.20;;;;;;;-1.34;100.00;101472.17;220264;1267;139320;-86
2023/03/02 03:25:41;;;;;;;76.60;30.50;;;;;;;-1.30;100.00;101474.71;220927;1266;139598;-86
2023/03/02 03:30:49;;;;;;;84.60;26.00;;;;;;;-1.21;100.00;101478.45;220280;1268;139476;-86
2023/03/02 03:35:49;;;;;;;57.80;23.80;;;;;;;-1.12;100.00;101476.23;220886;1266;139166;-86
2023/03/02 03:40:50;;;;;;;58.90;25.70;;;;;;;-1.07;100.00;101475.67;220587;1267;139097;-85
2023/03/02 03:45:50;;;;;;;60.60;26.50;;;;;;;-1.08;100.00;101465.63;220878;1267;139314;-87
2023/03/02 03:50:51;;;;;;;59.60;29.50;;;;;;;-1.08;100.00;101476.48;220194;1267;139721;-86
2023/03/02 03:55:52;;;;;;;74.70;29.50;;;;;;;-1.09;100.00;101478.92;220932;1267;139199;-88
2023/03/02 04:00:52;;;;;;;68.70;31.20;;;;;;;-1.10;100.00;101475.30;220271;1267;139704;-87
2023/03/02 04:05:53;;;;;;;69.30;27.90;;;;;;;-1.08;100.00;101478.38;220829;1270;139357;-87
2023/03/02 04:10:53;;;;;;;57.00;23.90;;;;;;;-1.09;100.00;101476.48;220596;1266;139149;-86
2023/03/02 04:15:54;;;;;;;58.20;25.00;;;;;;;-1.08;100.00;101476.86;220850;1267;139137;-86
2023/03/02 04:20:54;;;;;;;53.30;25.00;;;;;;;-1.06;100.00;101480.27;220969;1269;139400;-86
2023/03/02 04:26:00;;;;;;;60.30;25.90;;;;;;;-1.03;100.00;101481.01;220758;1266;140370;-87
2023/03/02 04:31:00;;;;;;;70.10;27.50;;;;;;;-1.05;100.00;101477.23;220492;1269;139231;-87
2023/03/02 04:36:04;;;;;;;61.00;22.80;;;;;;;-1.07;100.00;101481.52;220484;1267;139608;-87
2023/03/02 04:41:05;;;;;;;63.20;25.60;;;;;;;-1.04;100.00;101486.20;220993;1266;99102;-87
2023/03/02 04:46:05;;;;;;;64.90;23.50;;;;;;;-1.01;100.00;101485.27;220291;1266;139523;-86
2023/03/02 04:51:09;;;;;;;61.00;24.20;;;;;;;-1.00;100.00;101479.48;220876;1270;139218;-86
2023/03/02 04:56:10;;;;;;;57.90;24.80;;;;;;;-1.00;100.00;101484.03;220193;1267;139357;-86
2023/03/02 05:01:20;;;;;;;62.90;26.90;;;;;;;-0.99;100.00;101480.84;220998;1269;139759;-88
2023/03/02 05:07:00;;;;;;;72.30;26.70;;;;;;;-1.02;100.00;101478.53;220320;1270;139633;-88
2023/03/02 05:17:27;;;;;;;60.60;25.50;;;;;;;-1.02;100.00;101488.13;220396;1267;139810;-88
2023/03/02 05:22:31;;;;;;;63.20;29.60;;;;;;;-1.02;100.00;101483.55;220888;1268;138033;-87
2023/03/02 05:27:39;;;;;;;62.20;25.50;;;;;;;-0.99;100.00;101485.38;220094;1266;141161;-88
2023/03/02 05:32:42;;;;;;;57.30;26.70;;;;;;;-0.99;100.00;101493.37;220506;1265;139275;-88
2023/03/02 05:37:57;;;;;;;57.40;23.90;;;;;;;-0.97;100.00;101492.44;220099;1265;139623;-89
2023/03/02 05:42:58;;;;;;;59.10;24.90;;;;;;;-0.94;100.00;101496.66;220689;1265;139398;-88
2023/03/02 05:48:45;;;;;;;68.30;28.90;;;;;;;-0.94;100.00;101504.92;220229;1269;139766;-88
2023/03/02 05:54:33;;;;;;;;;;;;;;;;;;;;;
2023/03/02 05:59:41;;;;;;;45.30;21.80;;;;;;;-0.90;100.00;101514.37;220116;1270;141881;-88
2023/03/02 06:04:44;;;;;;;49.60;20.80;;;;;;;-0.92;100.00;101516.21;221362;1269;139337;-88
2023/03/02 06:10:14;;;;;;;52.00;17.50;;;;;;;-0.91;100.00;101530.48;220139;1265;139496;-89
2023/03/02 06:15:15;;;;;;;34.60;16.10;;;;;;;-0.98;100.00;101526.50;221209;1265;139229;-88
2023/03/02 06:20:18;;;;;;;34.10;15.60;;;;;;;-0.96;100.00;101523.58;219571;1266;139944;-86
2023/03/02 06:25:22;;;;;;;31.40;15.10;;;;;;;-0.93;100.00;101526.91;220786;1266;139179;-85
2023/03/02 06:30:24;;;;;;;31.80;15.00;;;;;;;-0.93;100.00;101531.02;220431;1266;139682;-85
2023/03/02 06:35:25;;;;;;;34.60;14.60;;;;;;;-0.88;100.00;101531.98;220767;1265;139033;-87
2023/03/02 06:40:25;;;;;;;30.80;14.20;;;;;;;-0.83;100.00;101534.17;220266;1265;139534;-88
2023/03/02 06:45:28;;;;;;;32.70;12.60;;;;;;;-0.77;100.00;101542.81;221028;1266;139667;-87
2023/03/02 06:50:28;;;;;;;31.00;11.80;;;;;;;-0.72;100.00;101548.69;221079;1266;139507;-88
2023/03/02 06:55:29;;;;;;;29.70;11.50;;;;;;;-0.71;100.00;101552.58;220892;1266;139355;-87
2023/03/02 07:00:29;;;;;;;29.10;13.40;;;;;;;-0.67;100.00;101553.27;220910;1265;139116;-87
2023/03/02 07:05:31;;;;;;;30.70;12.80;;;;;;;-0.58;100.00;101560.38;220919;1266;97854;-88
2023/03/02 07:10:38;;;;;;;33.80;13.20;;;;;;;-0.53;100.00;101561.05;220273;1266;139192;-89
2023/03/02 07:15:39;;;;;;;34.80;15.10;;;;;;;-0.47;100.00;101560.77;220769;1269;139341;-87
2023/03/02 07:20:39;;;;;;;33.20;13.40;;;;;;;-0.43;100.00;101556.90;220215;1265;139414;-88
2023/03/02 07:25:39;;;;;;;34.50;13.40;;;;;;;-0.37;100.00;101555.70;220862;1266;139552;-87
2023/03/02 07:30:40;;;;;;;35.30;13.80;;;;;;;-0.34;100.00;101551.90;220326;1266;139914;-88
2023/03/02 07:35:40;;;;;;;34.20;13.90;;;;;;;-0.23;100.00;101548.91;220974;1265;97933;-88
2023/03/02 07:40:42;;;;;;;45.80;16.90;;;;;;;-0.15;100.00;101545.73;220202;1265;139358;-88
2023/03/02 07:45:42;;;;;;;31.60;14.00;;;;;;;-0.07;100.00;101547.42;221707;1265;138388;-88
2023/03/02 07:50:42;;;;;;;31.80;13.40;;;;;;;0.01;100.00;101543.80;220280;1265;139430;-88
2023/03/02 07:55:43;;;;;;;34.50;13.10;;;;;;;0.11;100.00;101543.95;221306;1265;139058;-89
2023/03/02 08:00:43;;;;;;;36.10;13.30;;;;;;;0.20;100.00;101546.71;220355;1267;139981;-89
2023/03/02 08:05:49;;;;;;;41.10;14.50;;;;;;;0.24;100.00;101541.91;221025;1269;107362;-90
2023/03/02 08:10:50;;;;;;;39.60;14.70;;;;;;;0.28;100.00;101536.96;220012;1265;139688;-87
2023/03/02 08:15:59;;;;;;;36.80;13.40;;;;;;;0.43;100.00;101532.02;220875;1269;139161;-87
2023/03/02 08:21:00;;;;;;;37.50;14.40;;;;;;;0.56;100.00;101527.21;220418;1267;139423;-88
2023/03/02 08:26:00;;;;;;;36.50;14.10;;;;;;;0.67;100.00;101526.29;220227;1266;139513;-89
2023/03/02 08:31:04;;;;;;;33.90;13.80;;;;;;;0.78;100.00;101518.54;220585;1266;139152;-88
2023/03/02 08:36:07;;;;;;;37.60;14.60;;;;;;;0.92;100.00;101517.00;220355;1265;139264;-89
2023/03/02 08:41:12;;;;;;;32.90;13.10;;;;;;;1.05;100.00;101509.92;220988;1265;139533;-89
2023/03/02 08:46:15;;;;;;;38.70;15.00;;;;;;;1.18;100.00;101506.95;220417;1269;139059;-90
2023/03/02 08:51:24;;;;;;;39.10;14.60;;;;;;;1.30;100.00;101506.54;220926;1265;139190;-90
2023/03/02 08:56:28;;;;;;;48.00;17.90;;;;;;;1.43;100.00;101505.09;220293;1265;139043;-89
2023/03/02 09:01:31;;;;;;;39.80;16.10;;;;;;;1.57;100.00;101493.71;220861;1266;138996;-88
2023/03/02 09:06:35;;;;;;;36.80;14.50;;;;;;;1.77;100.00;101486.99;220206;1266;139250;-88
2023/03/02 09:11:36;;;;;;;34.10;15.50;;;;;;;1.97;100.00;101478.94;220838;1266;98451;-89
2023/03/02 09:16:37;;;;;;;36.40;14.10;;;;;;;2.10;100.00;101484.98;220375;1265;139864;-89
2023/03/02 09:21:37;;;;;;;30.20;12.80;;;;;;;2.23;100.00;101486.61;220730;1266;139071;-90
2023/03/02 09:26:38;;;;;;;26.50;10.20;;;;;;;2.25;100.00;101485.83;220139;1265;139656;-88
2023/03/02 09:31:38;;;;;;;24.00;10.90;;;;;;;2.23;100.00;101489.39;221472;1265;139624;-89
2023/03/02 09:36:38;;;;;;;22.30;9.20;;;;;;;2.24;100.00;101487.46;220360;1265;139578;-90
2023/03/02 09:41:59;;;;;;;22.20;10.00;;;;;;;2.25;100.00;101482.23;220928;1266;97842;-90
2023/03/02 09:47:09;;;;;;;30.40;12.00;;;;;;;2.26;100.00;101481.84;220421;1265;138565;-90
2023/03/02 09:52:19;;;;;;;29.60;12.00;;;;;;;2.24;100.00;101475.80;220744;1266;139288;-86
2023/03/02 09:57:31;;;;;;;40.70;14.40;;;;;;;2.29;100.00;101480.92;220330;1265;139381;-87
2023/03/02 10:02:40;;;;;;;29.70;11.40;;;;;;;2.29;100.00;101479.73;220709;1265;139082;-87
2023/03/02 10:07:40;;;;;;;27.20;10.90;;;;;;;2.45;100.00;101485.45;220176;1266;140368;-87
2023/03/02 10:13:07;;;;;;;29.60;13.20;;;;;;;2.52;100.00;101484.05;220664;1266;139008;-85
2023/03/02 10:18:18;;;;;;;30.60;13.40;;;;;;;2.61;100.00;101487.88;220448;1265;139997;-87
2023/03/02 10:23:44;;;;;;;28.80;11.60;;;;;;;2.61;100.00;101487.82;221167;1265;138828;-88
2023/03/02 10:28:56;;;;;;;30.10;13.20;;;;;;;2.70;100.00;101484.27;220301;1265;139687;-89
2023/03/02 10:33:57;;;;;;;27.10;12.20;;;;;;;2.72;100.00;101485.55;220747;1266;139219;-89
2023/03/02 10:38:59;;;;;;;26.10;12.50;;;;;;;2.61;100.00;101479.51;220177;1266;140464;-88
2023/03/02 10:44:31;;;;;;;29.90;11.70;;;;;;;2.67;100.00;101472.88;220892;1265;138983;-89
2023/03/02 10:49:38;;;;;;;25.80;10.60;;;;;;;2.74;100.00;101473.88;220270;1266;139740;-87
2023/03/02 10:54:38;;;;;;;34.70;14.10;;;;;;;2.92;100.00;101470.84;220791;1265;138921;-87
2023/03/02 10:59:45;;;;;;;31.90;14.20;;;;;;;3.07;100.00;101471.41;220479;1266;139636;-87
2023/03/02 11:04:45;;;;;;;31.80;13.40;;;;;;;3.17;100.00;101466.59;220870;1266;139698;-87
2023/03/02 11:10:01;;;;;;;35.80;15.40;;;;;;;3.19;100.00;101463.11;220443;1265;139628;-88
2023/03/02 11:15:20;;;;;;;27.50;13.10;;;;;;;3.19;100.00;101458.55;220786;1266;139359;-87
2023/03/02 11:20:29;;;;;;;28.50;11.20;;;;;;;3.25;100.00;101454.61;220365;1266;139348;-89
2023/03/02 11:25:39;;;;;;;29.10;14.20;;;;;;;3.25;100.00;101456.52;221129;1265;139047;-88
2023/03/02 11:30:46;;;;;;;32.50;13.20;;;;;;;3.21;100.00;101448.84;220218;1266;139821;-87
2023/03/02 11:35:54;;;;;;;29.50;12.20;;;;;;;3.10;100.00;101449.31;220863;1266;111054;-87
2023/03/02 11:40:59;;;;;;;27.00;11.00;;;;;;;3.20;100.00;101445.96;220461;1266;139380;-89
2023/03/02 11:46:02;;;;;;;29.50;11.60;;;;;;;3.29;100.00;101445.50;220313;1265;139920;-88
2023/03/02 11:51:13;;;;;;;28.60;12.30;;;;;;;3.36;100.00;101448.84;220837;1265;140039;-87
2023/03/02 11:56:13;;;;;;;27.60;13.50;;;;;;;3.40;100.00;101446.42;220233;1265;140288;-86
2023/03/02 12:01:22;;;;;;;29.60;12.70;;;;;;;3.38;100.00;101442.20;220751;1265;138993;-89
2023/03/02 12:06:27;;;;;;;26.30;12.20;;;;;;;3.42;100.00;101434.95;220398;1268;139624;-88
2023/03/02 12:11:37;;;;;;;24.60;11.50;;;;;;;3.36;100.00;101425.81;220699;1265;138755;-87
2023/03/02 12:16:40;;;;;;;28.90;12.50;;;;;;;3.30;100.00;101420.28;220121;1265;139597;-89
2023/03/02 12:21:54;;;;;;;27.10;13.00;;;;;;;3.32;100.00;101422.96;220798;1266;139350;-87
2023/03/02 12:27:12;;;;;;;29.50;13.70;;;;;;;3.25;100.00;101418.66;220203;1269;139214;-89
2023/03/02 12:32:33;;;;;;;27.50;13.30;;;;;;;3.20;100.00;101414.52;220765;1265;139059;-88
2023/03/02 12:37:52;;;;;;;36.10;17.40;;;;;;;3.19;100.00;101403.88;220019;1267;140619;-88
2023/03/02 12:43:17;;;;;;;30.90;15.00;;;;;;;3.23;100.00;101393.23;220655;1266;139232;-87
2023/03/02 12:48:34;;;;;;;32.20;16.40;;;;;;;3.39;100.00;101389.55;220397;1266;139911;-87
2023/03/02 12:53:36;;;;;;;27.60;14.10;;;;;;;3.49;100.00;101386.67;220956;1265;97993;-86
2023/03/02 12:58:36;;;;;;;29.50;14.80;;;;;;;3.50;100.00;101386.33;220305;1266;140540;-86
2023/03/02 13:03:45;;;;;;;33.40;16.60;;;;;;;3.53;100.00;101383.09;220798;1266;139540;-87
2023/03/02 13:08:54;;;;;;;31.40;15.40;;;;;;;3.46;100.00;101381.20;220237;1270;139113;-85
2023/03/02 13:13:56;;;;;;;31.70;16.70;;;;;;;3.42;100.00;101374.09;220758;1269;139252;-85
2023/03/02 13:18:59;;;;;;;30.30;14.30;;;;;;;3.51;100.00;101371.70;220203;1266;140072;-87
2023/03/02 13:24:00;;;;;;;24.50;12.30;;;;;;;3.48;100.00;101359.91;220845;1266;98453;-87
2023/03/02 13:29:21;;;;;;;27.40;13.00;;;;;;;3.59;100.00;101355.14;220110;1265;139345;-86
2023/03/02 13:34:25;;;;;;;28.90;13.70;;;;;;;3.67;100.00;101352.39;220815;1266;139345;-87
2023/03/02 13:39:29;;;;;;;25.40;11.70;;;;;;;3.67;100.00;101347.77;220199;1265;139513;-89
2023/03/02 13:44:33;;;;;;;25.20;11.40;;;;;;;3.51;100.00;101342.92;220758;1266;140425;-88
2023/03/02 13:49:35;;;;;;;26.80;11.90;;;;;;;3.44;100.00;101337.58;220198;1266;139560;-87
2023/03/02 13:54:36;;;;;;;27.30;11.80;;;;;;;3.47;100.00;101333.21;220870;1265;97885;-86
2023/03/02 13:59:37;;;;;;;29.50;12.40;;;;;;;3.55;100.00;101326.20;220322;1266;139639;-87
2023/03/02 14:04:37;;;;;;;24.30;11.50;;;;;;;3.59;100.00;101319.10;220857;1266;140303;-87
2023/03/02 14:09:37;;;;;;;28.90;12.90;;;;;;;3.60;100.00;101310.66;220238;1266;139558;-87
2023/03/02 14:14:39;;;;;;;33.60;15.90;;;;;;;3.56;100.00;101298.33;220884;1266;139227;-87
2023/03/02 14:19:39;;;;;;;25.90;13.00;;;;;;;3.53;100.00;101289.47;220256;1265;139601;-87
2023/03/02 14:24:40;;;;;;;28.00;13.60;;;;;;;3.54;100.00;101281.73;220854;1265;138998;-86
2023/03/02 14:29:42;;;;;;;25.90;14.70;;;;;;;3.56;100.00;101268.65;220186;1265;139430;-86
2023/03/02 14:34:43;;;;;;;29.70;13.60;;;;;;;3.58;100.00;101257.52;220710;1269;139081;-87
2023/03/02 14:39:52;;;;;;;80.40;54.80;;;;;;;3.56;100.00;101252.76;219978;1268;139957;-86
2023/03/02 14:44:53;;;;;;;44.90;27.40;;;;;;;3.56;100.00;101247.16;220595;1266;139253;-87
2023/03/02 14:49:53;;;;;;;30.50;14.40;;;;;;;3.59;100.00;101239.86;220291;1266;139304;-88
2023/03/02 14:55:00;;;;;;;31.90;14.60;;;;;;;3.53;100.00;101233.36;220786;1266;139002;-88
2023/03/02 15:00:01;;;;;;;31.10;15.00;;;;;;;3.43;100.00;101229.98;220082;1266;139455;-88
2023/03/02 15:05:01;;;;;;;27.00;12.40;;;;;;;3.34;100.00;101232.92;220474;1265;139550;-88
2023/03/02 15:10:02;;;;;;;24.50;12.20;;;;;;;3.28;100.00;101233.29;220043;1266;139623;-89
2023/03/02 15:15:03;;;;;;;24.80;13.00;;;;;;;3.26;100.00;101232.73;220741;1266;139856;-89
2023/03/02 15:20:05;;;;;;;22.00;9.90;;;;;;;3.22;100.00;101233.86;220230;1266;139870;-89
2023/03/02 15:25:05;;;;;;;28.10;10.60;;;;;;;3.05;100.00;101236.28;220672;1266;139811;-89
2023/03/02 15:30:06;;;;;;;27.30;12.50;;;;;;;3.02;100.00;101237.38;220400;1266;139441;-89
2023/03/02 15:35:07;;;;;;;25.00;13.40;;;;;;;2.99;100.00;101235.21;220849;1266;137782;-89
2023/03/02 15:40:08;;;;;;;25.10;12.50;;;;;;;2.95;100.00;101235.11;220245;1265;139150;-90
2023/03/02 15:45:09;;;;;;;42.40;22.40;;;;;;;2.92;100.00;101236.64;220720;1270;139040;-89
2023/03/02 15:50:11;;;;;;;27.00;13.20;;;;;;;2.82;100.00;101233.70;220225;1266;139954;-90
2023/03/02 15:55:14;;;;;;;26.40;13.20;;;;;;;2.72;100.00;101234.37;220331;1266;139060;-88
2023/03/02 16:00:18;;;;;;;27.60;13.50;;;;;;;2.57;100.00;101236.02;220062;1266;139112;-91
2023/03/02 16:05:18;;;;;;;48.70;28.00;;;;;;;2.51;100.00;101232.33;220601;1266;139471;-89
2023/03/02 16:10:19;;;;;;;31.40;15.50;;;;;;;2.44;100.00;101229.04;220135;1266;140105;-90
2023/03/02 16:15:20;;;;;;;26.60;12.60;;;;;;;2.44;100.00;101234.05;220752;1266;138970;-90
2023/03/02 16:20:20;;;;;;;26.40;11.80;;;;;;;2.38;100.00;101230.80;220220;1266;139714;-89
2023/03/02 16:25:21;;;;;;;40.10;18.60;;;;;;;2.30;100.00;101229.79;220750;1265;139390;-90
2023/03/02 16:30:21;;;;;;;28.60;13.30;;;;;;;2.24;100.00;101227.28;220389;1266;139421;-90
2023/03/02 16:35:22;;;;;;;29.30;12.70;;;;;;;2.20;100.00;101224.33;221033;1265;139105;-91
2023/03/02 16:40:23;;;;;;;28.50;13.40;;;;;;;2.11;100.00;101218.86;220360;1265;139275;-90
2023/03/02 16:45:23;;;;;;;30.30;13.80;;;;;;;1.90;100.00;101218.14;220644;1269;138988;-90
2023/03/02 16:50:24;;;;;;;34.40;17.00;;;;;;;1.78;100.00;101217.45;220266;1266;139324;-90
2023/03/02 16:55:24;;;;;;;41.90;20.90;;;;;;;1.73;100.00;101223.23;220707;1266;139276;-91
2023/03/02 17:00:26;;;;;;;29.80;14.10;;;;;;;1.65;100.00;101218.88;220355;1266;139999;-90
2023/03/02 17:05:26;;;;;;;32.40;15.70;;;;;;;1.60;100.00;101224.01;220785;1265;138860;-90
2023/03/02 17:10:27;;;;;;;35.60;16.00;;;;;;;1.59;100.00;101225.23;220208;1266;139973;-90
2023/03/02 17:15:28;;;;;;;33.80;17.00;;;;;;;1.52;100.00;101229.78;220276;1269;906056;-90
2023/03/02 17:20:29;;;;;;;38.30;19.00;;;;;;;1.48;100.00;101233.21;220139;1266;139810;-90
2023/03/02 17:25:29;;;;;;;40.60;20.30;;;;;;;1.49;100.00;101232.94;220705;1267;139044;-89
2023/03/02 17:30:30;;;;;;;47.10;21.60;;;;;;;1.48;100.00;101232.73;220262;1266;139651;-89
2023/03/02 17:35:30;;;;;;;46.50;22.30;;;;;;;1.47;100.00;101227.10;220927;1266;139426;-88
2023/03/02 17:40:32;;;;;;;48.80;23.70;;;;;;;1.45;100.00;101231.33;220347;1266;140114;-89
2023/03/02 17:45:32;;;;;;;44.40;20.30;;;;;;;1.43;100.00;101230.48;220856;1266;139007;-88
2023/03/02 17:50:33;;;;;;;45.80;20.10;;;;;;;1.39;100.00;101235.33;220242;1266;211419;-89
2023/03/02 17:55:33;;;;;;;40.70;19.50;;;;;;;1.30;100.00;101230.65;220796;1266;138998;-89
2023/03/02 18:00:33;;;;;;;42.80;18.80;;;;;;;1.22;100.00;101227.42;220474;1266;139518;-88
2023/03/02 18:05:34;;;;;;;43.70;21.80;;;;;;;1.17;100.00;101226.36;220659;1266;138795;-87
2023/03/02 18:10:34;;;;;;;41.50;20.40;;;;;;;1.16;100.00;101224.73;220390;1266;139740;-88
2023/03/02 18:15:34;;;;;;;42.90;20.10;;;;;;;1.14;100.00;101227.61;220889;1266;139212;-88
2023/03/02 18:20:35;;;;;;;44.50;18.40;;;;;;;1.09;100.00;101222.30;221283;1266;139652;-89
2023/03/02 18:25:35;;;;;;;41.10;19.70;;;;;;;1.04;100.00;101224.08;220633;1266;139829;-89
2023/03/02 18:30:36;;;;;;;43.00;19.40;;;;;;;0.99;100.00;101214.11;220022;1266;139269;-89
2023/03/02 18:35:37;;;;;;;40.40;19.20;;;;;;;0.96;100.00;101210.75;220506;1266;140009;-88
2023/03/02 18:40:37;;;;;;;46.50;21.20;;;;;;;0.89;100.00;101208.20;220299;1266;140381;-88
2023/03/02 18:45:38;;;;;;;46.90;20.30;;;;;;;0.82;100.00;101209.72;220797;1269;139943;-88
2023/03/02 18:50:38;;;;;;;38.90;18.10;;;;;;;0.79;100.00;101204.17;220085;1271;139965;-88
2023/03/02 18:55:39;;;;;;;46.20;20.80;;;;;;;0.74;100.00;101211.90;220927;1269;140071;-87
2023/03/02 19:00:41;;;;;;;47.80;21.10;;;;;;;0.65;100.00;101205.91;220435;1270;139134;-88
2023/03/02 19:05:42;;;;;;;40.20;19.60;;;;;;;0.55;100.00;101205.19;220837;1269;97843;-87
2023/03/02 19:10:42;;;;;;;44.60;20.60;;;;;;;0.46;100.00;101213.27;220016;1269;139093;-87
2023/03/02 19:15:43;;;;;;;46.00;21.30;;;;;;;0.41;100.00;101208.84;220441;1267;139398;-88
2023/03/02 19:20:45;;;;;;;44.60;19.40;;;;;;;0.37;100.00;101216.14;220219;1266;139336;-88
2023/03/02 19:25:46;;;;;;;49.40;23.20;;;;;;;0.35;100.00;101217.75;220567;1266;141547;-87
2023/03/02 19:30:46;;;;;;;50.80;24.40;;;;;;;0.32;100.00;101220.05;220139;1270;139625;-87
2023/03/02 19:35:47;;;;;;;56.80;26.50;;;;;;;0.27;100.00;101208.75;220713;1269;97930;-86
2023/03/02 19:40:47;;;;;;;50.40;22.40;;;;;;;0.28;100.00;101203.77;220048;1266;138899;-84
2023/03/02 19:45:48;;;;;;;52.10;23.70;;;;;;;0.25;100.00;101203.30;220646;1266;139819;-86
2023/03/02 19:50:48;;;;;;;55.90;23.80;;;;;;;0.21;100.00;101201.45;220056;1269;139357;-84
2023/03/02 19:55:51;;;;;;;50.70;22.80;;;;;;;0.22;100.00;101211.64;220723;1266;139723;-85
2023/03/02 20:00:52;;;;;;;56.30;23.80;;;;;;;0.16;100.00;101212.67;220548;1268;140250;-85
2023/03/02 20:05:54;;;;;;;53.50;22.90;;;;;;;0.07;100.00;101211.98;220863;1266;98407;-85
2023/03/02 20:10:55;;;;;;;44.20;19.50;;;;;;;0.05;100.00;101209.94;220463;1266;139605;-85
2023/03/02 20:15:55;;;;;;;53.10;25.40;;;;;;;0.06;100.00;101210.63;220152;1270;139955;-85
2023/03/02 20:20:56;;;;;;;52.30;21.60;;;;;;;0.08;100.00;101210.92;220615;1269;139397;-85
2023/03/02 20:25:56;;;;;;;58.60;25.90;;;;;;;0.10;100.00;101213.67;220218;1269;139336;-85
2023/03/02 20:30:59;;;;;;;63.00;25.30;;;;;;;0.11;100.00;101214.90;221161;1266;139184;-84
2023/03/02 20:36:01;;;;;;;57.30;23.70;;;;;;;0.12;100.00;101220.52;220454;1270;139709;-85
2023/03/02 20:41:04;;;;;;;53.10;23.10;;;;;;;0.10;100.00;101230.77;220879;1270;139649;-85
2023/03/02 20:46:06;;;;;;;59.20;26.50;;;;;;;0.08;100.00;101235.23;220076;1265;139877;-86
2023/03/02 20:51:07;;;;;;;54.30;22.50;;;;;;;0.06;100.00;101236.13;220816;1270;139712;-85
2023/03/02 20:56:10;;;;;;;55.80;22.40;;;;;;;0.04;100.00;101234.02;220115;1268;139844;-85
2023/03/02 21:01:11;;;;;;;66.50;26.50;;;;;;;0.01;100.00;101225.40;220646;1270;139158;-84
2023/03/02 21:06:14;;;;;;;62.00;26.30;;;;;;;-0.01;100.00;101214.56;222900;1265;140084;-86
2023/03/02 21:11:17;;;;;;;67.20;25.90;;;;;;;-0.02;100.00;101218.45;220686;1269;140016;-86
2023/03/02 21:16:22;;;;;;;64.10;26.30;;;;;;;0.01;100.00;101219.29;220128;1270;139783;-87
2023/03/02 21:21:25;;;;;;;58.20;24.40;;;;;;;0.05;100.00;101216.34;220596;1270;139123;-86
2023/03/02 21:26:26;;;;;;;63.20;25.70;;;;;;;0.06;100.00;101214.75;220160;1269;140236;-86
2023/03/02 21:31:26;;;;;;;65.30;28.40;;;;;;;0.08;100.00;101212.50;220630;1266;140038;-87
2023/03/02 21:36:29;;;;;;;68.20;30.50;;;;;;;0.11;100.00;101208.09;220352;1267;140299;-87
2023/03/02 21:41:29;;;;;;;67.30;27.60;;;;;;;0.10;100.00;101199.38;220698;1270;138989;-86
2023/03/02 21:46:32;;;;;;;62.10;27.50;;;;;;;0.08;100.00;101187.34;220519;1267;139969;-85
2023/03/02 21:51:33;;;;;;;62.60;26.90;;;;;;;0.07;100.00;101173.11;220823;1267;139076;-86
2023/03/02 21:56:34;;;;;;;62.90;26.50;;;;;;;0.08;100.00;101176.67;220717;1267;140087;-85
2023/03/02 22:01:34;;;;;;;61.40;25.60;;;;;;;0.06;100.00;101179.56;221160;1267;139497;-85
2023/03/02 22:06:36;;;;;;;65.40;27.50;;;;;;;0.09;100.00;101176.55;220402;1267;139663;-86
2023/03/02 22:11:37;;;;;;;64.80;25.30;;;;;;;0.13;100.00;101170.44;221591;1267;139026;-84
2023/03/02 22:16:40;;;;;;;58.40;24.50;;;;;;;0.13;100.00;101168.42;220105;1267;140151;-85
2023/03/02 22:21:51;;;;;;;63.20;25.70;;;;;;;0.12;100.00;101167.26;220625;1270;139089;-87
2023/03/02 22:27:19;;;;;;;58.60;24.40;;;;;;;0.09;100.00;101184.34;219943;1269;139863;-84
2023/03/02 22:32:25;;;;;;;54.00;22.40;;;;;;;0.07;100.00;101184.85;220521;1267;139439;-87
2023/03/02 22:37:32;;;;;;;60.70;23.50;;;;;;;0.06;100.00;101187.23;220188;1267;139084;-86